sensor_id;sensor_type;location;lat;lon;timestamp;P1;durP1;ratioP1;P2;durP2;ratioP2
46721;SDS011;32455;43.430;23.136;2023-06-24T00:00:00;10.65;;;9.55;;
46721;SDS011;32455;43.430;23.136;2023-06-24T00:02:46;11.70;;;10.52;;
46721;SDS011;32455;43.430;23.136;2023-06-24T00:05:31;14.05;;;11.18;;
46721;SDS011;32455;43.430;23.136;2023-06-24T00:08:18;13.95;;;10.02;;
46721;SDS011;32455;43.430;23.136;2023-06-24T00:11:05;11.63;;;10.45;;
46721;SDS011;32455;43.430;23.136;2023-06-24T00:13:50;18.15;;;10.82;;
46721;SDS011;32455;43.430;23.136;2023-06-24T00:16:36;14.02;;;11.45;;
46721;SDS011;32455;43.430;23.136;2023-06-24T00:19:22;13.27;;;10.98;;
46721;SDS011;32455;43.430;23.136;2023-06-24T00:22:09;12.82;;;11.10;;
46721;SDS011;32455;43.430;23.136;2023-06-24T00:24:54;14.52;;;11.00;;
46721;SDS011;32455;43.430;23.136;2023-06-24T00:27:41;15.73;;;10.82;;
46721;SDS011;32455;43.430;23.136;2023-06-24T00:30:27;11.85;;;10.65;;
46721;SDS011;32455;43.430;23.136;2023-06-24T00:33:13;12.63;;;10.48;;
46721;SDS011;32455;43.430;23.136;2023-06-24T00:35:58;14.32;;;10.80;;
46721;SDS011;32455;43.430;23.136;2023-06-24T00:38:43;16.52;;;10.07;;
46721;SDS011;32455;43.430;23.136;2023-06-24T00:41:28;11.95;;;10.70;;
46721;SDS011;32455;43.430;23.136;2023-06-24T00:44:14;13.45;;;10.85;;
46721;SDS011;32455;43.430;23.136;2023-06-24T00:46:59;13.02;;;10.75;;
46721;SDS011;32455;43.430;23.136;2023-06-24T00:49:47;12.73;;;10.85;;
46721;SDS011;32455;43.430;23.136;2023-06-24T00:52:32;12.60;;;11.23;;
46721;SDS011;32455;43.430;23.136;2023-06-24T00:55:18;12.93;;;11.60;;
46721;SDS011;32455;43.430;23.136;2023-06-24T00:58:07;12.52;;;11.15;;
46721;SDS011;32455;43.430;23.136;2023-06-24T01:00:53;12.93;;;10.75;;
46721;SDS011;32455;43.430;23.136;2023-06-24T01:03:43;12.95;;;11.52;;
46721;SDS011;32455;43.430;23.136;2023-06-24T01:06:28;14.60;;;11.35;;
46721;SDS011;32455;43.430;23.136;2023-06-24T01:09:15;14.38;;;11.75;;
46721;SDS011;32455;43.430;23.136;2023-06-24T01:12:00;15.25;;;10.77;;
46721;SDS011;32455;43.430;23.136;2023-06-24T01:14:44;12.63;;;11.32;;
46721;SDS011;32455;43.430;23.136;2023-06-24T01:17:35;15.68;;;11.55;;
46721;SDS011;32455;43.430;23.136;2023-06-24T01:30:06;13.73;;;10.70;;
46721;SDS011;32455;43.430;23.136;2023-06-24T01:32:23;14.45;;;11.95;;
46721;SDS011;32455;43.430;23.136;2023-06-24T01:35:20;13.38;;;11.57;;
46721;SDS011;32455;43.430;23.136;2023-06-24T01:38:14;12.38;;;11.02;;
46721;SDS011;32455;43.430;23.136;2023-06-24T01:41:06;12.13;;;10.82;;
46721;SDS011;32455;43.430;23.136;2023-06-24T01:43:53;15.80;;;11.52;;
46721;SDS011;32455;43.430;23.136;2023-06-24T01:46:41;16.75;;;11.35;;
46721;SDS011;32455;43.430;23.136;2023-06-24T01:49:31;13.20;;;11.30;;
46721;SDS011;32455;43.430;23.136;2023-06-24T01:52:18;14.45;;;11.45;;
46721;SDS011;32455;43.430;23.136;2023-06-24T01:55:09;14.18;;;11.35;;
46721;SDS011;32455;43.430;23.136;2023-06-24T01:57:57;16.27;;;10.88;;
46721;SDS011;32455;43.430;23.136;2023-06-24T02:00:44;13.55;;;11.52;;
46721;SDS011;32455;43.430;23.136;2023-06-24T02:03:31;17.13;;;11.68;;
46721;SDS011;32455;43.430;23.136;2023-06-24T02:06:18;13.10;;;11.68;;
46721;SDS011;32455;43.430;23.136;2023-06-24T02:09:06;13.40;;;11.73;;
46721;SDS011;32455;43.430;23.136;2023-06-24T02:11:54;13.68;;;11.07;;
46721;SDS011;32455;43.430;23.136;2023-06-24T02:14:42;12.52;;;11.27;;
46721;SDS011;32455;43.430;23.136;2023-06-24T02:17:28;14.48;;;11.88;;
46721;SDS011;32455;43.430;23.136;2023-06-24T02:20:13;16.70;;;11.95;;
46721;SDS011;32455;43.430;23.136;2023-06-24T02:23:01;14.82;;;11.52;;
46721;SDS011;32455;43.430;23.136;2023-06-24T02:25:49;14.27;;;11.02;;
46721;SDS011;32455;43.430;23.136;2023-06-24T02:28:35;12.57;;;11.20;;
46721;SDS011;32455;43.430;23.136;2023-06-24T02:31:21;17.23;;;12.43;;
46721;SDS011;32455;43.430;23.136;2023-06-24T02:34:06;13.55;;;11.43;;
46721;SDS011;32455;43.430;23.136;2023-06-24T02:36:52;16.75;;;11.95;;
46721;SDS011;32455;43.430;23.136;2023-06-24T02:39:38;19.48;;;12.40;;
46721;SDS011;32455;43.430;23.136;2023-06-24T02:42:28;13.00;;;11.70;;
46721;SDS011;32455;43.430;23.136;2023-06-24T02:45:14;13.60;;;12.30;;
46721;SDS011;32455;43.430;23.136;2023-06-24T02:48:00;16.52;;;11.35;;
46721;SDS011;32455;43.430;23.136;2023-06-24T02:50:45;16.02;;;11.90;;
46721;SDS011;32455;43.430;23.136;2023-06-24T02:53:31;15.55;;;12.68;;
46721;SDS011;32455;43.430;23.136;2023-06-24T02:56:17;13.68;;;11.82;;
46721;SDS011;32455;43.430;23.136;2023-06-24T02:59:06;16.63;;;11.85;;
46721;SDS011;32455;43.430;23.136;2023-06-24T03:01:51;16.35;;;12.27;;
46721;SDS011;32455;43.430;23.136;2023-06-24T03:04:37;14.98;;;12.23;;
46721;SDS011;32455;43.430;23.136;2023-06-24T03:07:23;13.75;;;12.15;;
46721;SDS011;32455;43.430;23.136;2023-06-24T03:10:09;13.32;;;11.90;;
46721;SDS011;32455;43.430;23.136;2023-06-24T03:12:55;13.85;;;12.07;;
46721;SDS011;32455;43.430;23.136;2023-06-24T03:15:40;18.95;;;12.32;;
46721;SDS011;32455;43.430;23.136;2023-06-24T03:18:25;14.90;;;12.65;;
46721;SDS011;32455;43.430;23.136;2023-06-24T03:21:11;13.75;;;12.30;;
46721;SDS011;32455;43.430;23.136;2023-06-24T03:23:56;18.42;;;12.80;;
46721;SDS011;32455;43.430;23.136;2023-06-24T03:26:43;14.43;;;12.93;;
46721;SDS011;32455;43.430;23.136;2023-06-24T03:29:28;16.13;;;12.88;;
46721;SDS011;32455;43.430;23.136;2023-06-24T03:32:14;17.17;;;12.25;;
46721;SDS011;32455;43.430;23.136;2023-06-24T03:34:59;15.75;;;12.35;;
46721;SDS011;32455;43.430;23.136;2023-06-24T03:37:45;16.30;;;13.23;;
46721;SDS011;32455;43.430;23.136;2023-06-24T03:40:30;15.85;;;12.55;;
46721;SDS011;32455;43.430;23.136;2023-06-24T03:43:16;15.95;;;12.55;;
46721;SDS011;32455;43.430;23.136;2023-06-24T03:46:02;16.83;;;12.93;;
46721;SDS011;32455;43.430;23.136;2023-06-24T03:48:47;14.52;;;13.02;;
46721;SDS011;32455;43.430;23.136;2023-06-24T03:51:34;16.63;;;13.10;;
46721;SDS011;32455;43.430;23.136;2023-06-24T03:54:20;15.52;;;12.75;;
46721;SDS011;32455;43.430;23.136;2023-06-24T03:57:05;13.88;;;12.30;;
46721;SDS011;32455;43.430;23.136;2023-06-24T03:59:51;15.27;;;13.32;;
46721;SDS011;32455;43.430;23.136;2023-06-24T04:02:36;14.63;;;12.50;;
46721;SDS011;32455;43.430;23.136;2023-06-24T04:05:22;16.67;;;12.90;;
46721;SDS011;32455;43.430;23.136;2023-06-24T04:08:09;14.90;;;12.48;;
46721;SDS011;32455;43.430;23.136;2023-06-24T04:10:54;14.20;;;12.77;;
46721;SDS011;32455;43.430;23.136;2023-06-24T04:13:38;16.63;;;13.85;;
46721;SDS011;32455;43.430;23.136;2023-06-24T04:16:23;13.82;;;12.45;;
46721;SDS011;32455;43.430;23.136;2023-06-24T04:19:09;16.73;;;13.27;;
46721;SDS011;32455;43.430;23.136;2023-06-24T04:21:54;16.35;;;13.80;;
46721;SDS011;32455;43.430;23.136;2023-06-24T04:24:39;16.45;;;13.52;;
46721;SDS011;32455;43.430;23.136;2023-06-24T04:27:25;15.63;;;12.88;;
46721;SDS011;32455;43.430;23.136;2023-06-24T04:30:10;17.02;;;13.10;;
46721;SDS011;32455;43.430;23.136;2023-06-24T04:32:55;17.60;;;13.38;;
46721;SDS011;32455;43.430;23.136;2023-06-24T04:35:41;16.95;;;13.25;;
46721;SDS011;32455;43.430;23.136;2023-06-24T04:38:26;15.85;;;13.07;;
46721;SDS011;32455;43.430;23.136;2023-06-24T04:41:11;13.20;;;11.82;;
46721;SDS011;32455;43.430;23.136;2023-06-24T04:43:56;16.00;;;11.68;;
46721;SDS011;32455;43.430;23.136;2023-06-24T04:46:42;13.57;;;11.55;;
46721;SDS011;32455;43.430;23.136;2023-06-24T04:49:27;13.30;;;11.80;;
46721;SDS011;32455;43.430;23.136;2023-06-24T04:52:12;13.18;;;11.52;;
46721;SDS011;32455;43.430;23.136;2023-06-24T04:54:57;12.90;;;11.00;;
46721;SDS011;32455;43.430;23.136;2023-06-24T04:57:42;14.10;;;11.00;;
46721;SDS011;32455;43.430;23.136;2023-06-24T05:00:27;15.45;;;11.23;;
46721;SDS011;32455;43.430;23.136;2023-06-24T05:03:13;12.60;;;11.15;;
46721;SDS011;32455;43.430;23.136;2023-06-24T05:05:58;14.45;;;11.05;;
46721;SDS011;32455;43.430;23.136;2023-06-24T05:08:43;13.20;;;9.95;;
46721;SDS011;32455;43.430;23.136;2023-06-24T05:11:28;15.55;;;10.80;;
46721;SDS011;32455;43.430;23.136;2023-06-24T05:14:14;13.82;;;10.68;;
46721;SDS011;32455;43.430;23.136;2023-06-24T05:16:59;14.75;;;11.35;;
46721;SDS011;32455;43.430;23.136;2023-06-24T05:19:44;11.95;;;10.10;;
46721;SDS011;32455;43.430;23.136;2023-06-24T05:22:29;13.75;;;10.57;;
46721;SDS011;32455;43.430;23.136;2023-06-24T05:25:14;18.02;;;10.40;;
46721;SDS011;32455;43.430;23.136;2023-06-24T05:27:59;14.60;;;10.38;;
46721;SDS011;32455;43.430;23.136;2023-06-24T05:30:45;13.35;;;11.05;;
46721;SDS011;32455;43.430;23.136;2023-06-24T05:33:31;12.63;;;10.52;;
46721;SDS011;32455;43.430;23.136;2023-06-24T05:36:16;12.45;;;11.15;;
46721;SDS011;32455;43.430;23.136;2023-06-24T05:39:01;14.52;;;10.38;;
46721;SDS011;32455;43.430;23.136;2023-06-24T05:41:47;15.45;;;11.57;;
46721;SDS011;32455;43.430;23.136;2023-06-24T05:44:35;14.27;;;12.18;;
46721;SDS011;32455;43.430;23.136;2023-06-24T05:47:20;14.38;;;12.93;;
46721;SDS011;32455;43.430;23.136;2023-06-24T05:50:04;14.25;;;12.73;;
46721;SDS011;32455;43.430;23.136;2023-06-24T05:52:50;18.20;;;12.93;;
46721;SDS011;32455;43.430;23.136;2023-06-24T05:55:35;17.50;;;12.82;;
46721;SDS011;32455;43.430;23.136;2023-06-24T05:58:21;15.70;;;13.20;;
46721;SDS011;32455;43.430;23.136;2023-06-24T06:01:07;17.77;;;13.20;;
46721;SDS011;32455;43.430;23.136;2023-06-24T06:03:54;15.75;;;14.05;;
46721;SDS011;32455;43.430;23.136;2023-06-24T06:06:39;17.80;;;13.52;;
46721;SDS011;32455;43.430;23.136;2023-06-24T06:09:25;18.20;;;13.18;;
46721;SDS011;32455;43.430;23.136;2023-06-24T06:12:11;15.40;;;12.93;;
46721;SDS011;32455;43.430;23.136;2023-06-24T06:14:56;15.63;;;14.07;;
46721;SDS011;32455;43.430;23.136;2023-06-24T06:17:41;15.13;;;13.20;;
46721;SDS011;32455;43.430;23.136;2023-06-24T06:20:26;14.93;;;13.40;;
46721;SDS011;32455;43.430;23.136;2023-06-24T06:23:12;16.55;;;13.30;;
46721;SDS011;32455;43.430;23.136;2023-06-24T06:25:57;17.70;;;13.30;;
46721;SDS011;32455;43.430;23.136;2023-06-24T06:28:43;15.55;;;12.35;;
46721;SDS011;32455;43.430;23.136;2023-06-24T06:31:28;14.63;;;12.93;;
46721;SDS011;32455;43.430;23.136;2023-06-24T06:34:14;15.38;;;12.77;;
46721;SDS011;32455;43.430;23.136;2023-06-24T06:36:59;16.85;;;12.57;;
46721;SDS011;32455;43.430;23.136;2023-06-24T06:39:44;17.30;;;13.80;;
46721;SDS011;32455;43.430;23.136;2023-06-24T06:42:30;18.58;;;13.38;;
46721;SDS011;32455;43.430;23.136;2023-06-24T06:45:15;14.18;;;12.70;;
46721;SDS011;32455;43.430;23.136;2023-06-24T06:48:01;20.70;;;13.98;;
46721;SDS011;32455;43.430;23.136;2023-06-24T06:50:52;18.80;;;14.00;;
46721;SDS011;32455;43.430;23.136;2023-06-24T06:53:38;17.75;;;12.90;;
46721;SDS011;32455;43.430;23.136;2023-06-24T06:56:23;16.45;;;12.85;;
46721;SDS011;32455;43.430;23.136;2023-06-24T06:59:09;14.82;;;12.50;;
46721;SDS011;32455;43.430;23.136;2023-06-24T07:01:54;16.15;;;12.77;;
46721;SDS011;32455;43.430;23.136;2023-06-24T07:04:39;15.43;;;12.65;;
46721;SDS011;32455;43.430;23.136;2023-06-24T07:07:25;18.73;;;12.32;;
46721;SDS011;32455;43.430;23.136;2023-06-24T07:10:10;16.65;;;12.07;;
46721;SDS011;32455;43.430;23.136;2023-06-24T07:13:08;13.10;;;11.73;;
46721;SDS011;32455;43.430;23.136;2023-06-24T07:15:54;14.07;;;12.32;;
46721;SDS011;32455;43.430;23.136;2023-06-24T07:18:39;14.90;;;11.85;;
46721;SDS011;32455;43.430;23.136;2023-06-24T07:21:24;17.10;;;11.57;;
46721;SDS011;32455;43.430;23.136;2023-06-24T07:24:09;16.08;;;12.60;;
46721;SDS011;32455;43.430;23.136;2023-06-24T07:26:54;16.83;;;11.93;;
46721;SDS011;32455;43.430;23.136;2023-06-24T07:29:40;17.27;;;12.10;;
46721;SDS011;32455;43.430;23.136;2023-06-24T07:32:26;15.15;;;10.95;;
46721;SDS011;32455;43.430;23.136;2023-06-24T07:35:11;13.40;;;11.25;;
46721;SDS011;32455;43.430;23.136;2023-06-24T07:37:56;17.50;;;12.18;;
46721;SDS011;32455;43.430;23.136;2023-06-24T07:40:40;15.32;;;11.35;;
46721;SDS011;32455;43.430;23.136;2023-06-24T07:43:25;14.88;;;10.40;;
46721;SDS011;32455;43.430;23.136;2023-06-24T07:46:11;19.02;;;11.68;;
46721;SDS011;32455;43.430;23.136;2023-06-24T07:48:56;17.55;;;10.75;;
46721;SDS011;32455;43.430;23.136;2023-06-24T07:51:41;13.15;;;10.95;;
46721;SDS011;32455;43.430;23.136;2023-06-24T07:54:26;17.08;;;11.27;;
46721;SDS011;32455;43.430;23.136;2023-06-24T07:57:12;15.02;;;10.82;;
46721;SDS011;32455;43.430;23.136;2023-06-24T07:59:57;12.10;;;10.50;;
46721;SDS011;32455;43.430;23.136;2023-06-24T08:02:43;16.10;;;10.02;;
46721;SDS011;32455;43.430;23.136;2023-06-24T08:05:28;13.80;;;10.30;;
46721;SDS011;32455;43.430;23.136;2023-06-24T08:08:14;19.98;;;11.13;;
46721;SDS011;32455;43.430;23.136;2023-06-24T08:10:59;14.43;;;10.73;;
46721;SDS011;32455;43.430;23.136;2023-06-24T08:13:44;11.13;;;9.68;;
46721;SDS011;32455;43.430;23.136;2023-06-24T08:16:29;20.30;;;10.40;;
46721;SDS011;32455;43.430;23.136;2023-06-24T08:19:14;16.38;;;10.15;;
46721;SDS011;32455;43.430;23.136;2023-06-24T08:21:59;13.50;;;9.90;;
46721;SDS011;32455;43.430;23.136;2023-06-24T08:24:45;14.05;;;10.05;;
46721;SDS011;32455;43.430;23.136;2023-06-24T08:27:30;13.73;;;10.60;;
46721;SDS011;32455;43.430;23.136;2023-06-24T08:30:15;17.55;;;11.18;;
46721;SDS011;32455;43.430;23.136;2023-06-24T08:33:00;16.80;;;11.13;;
46721;SDS011;32455;43.430;23.136;2023-06-24T08:35:46;13.80;;;10.25;;
46721;SDS011;32455;43.430;23.136;2023-06-24T08:38:31;14.93;;;9.85;;
46721;SDS011;32455;43.430;23.136;2023-06-24T08:41:17;10.55;;;9.45;;
46721;SDS011;32455;43.430;23.136;2023-06-24T08:44:02;11.43;;;10.02;;
46721;SDS011;32455;43.430;23.136;2023-06-24T08:46:48;14.80;;;10.27;;
46721;SDS011;32455;43.430;23.136;2023-06-24T08:49:34;10.82;;;9.68;;
46721;SDS011;32455;43.430;23.136;2023-06-24T08:52:29;14.43;;;10.25;;
46721;SDS011;32455;43.430;23.136;2023-06-24T08:55:17;15.30;;;10.88;;
46721;SDS011;32455;43.430;23.136;2023-06-24T08:58:07;11.50;;;10.07;;
46721;SDS011;32455;43.430;23.136;2023-06-24T09:00:52;13.70;;;10.48;;
46721;SDS011;32455;43.430;23.136;2023-06-24T09:03:38;12.38;;;9.90;;
46721;SDS011;32455;43.430;23.136;2023-06-24T09:06:24;12.13;;;8.90;;
46721;SDS011;32455;43.430;23.136;2023-06-24T09:09:22;10.55;;;9.55;;
46721;SDS011;32455;43.430;23.136;2023-06-24T09:12:08;11.45;;;9.98;;
46721;SDS011;32455;43.430;23.136;2023-06-24T09:14:57;13.18;;;11.23;;
46721;SDS011;32455;43.430;23.136;2023-06-24T09:17:45;14.60;;;9.88;;
46721;SDS011;32455;43.430;23.136;2023-06-24T09:20:33;13.95;;;10.40;;
46721;SDS011;32455;43.430;23.136;2023-06-24T09:23:25;12.07;;;9.93;;
46721;SDS011;32455;43.430;23.136;2023-06-24T09:26:11;13.80;;;10.07;;
46721;SDS011;32455;43.430;23.136;2023-06-24T09:28:57;13.43;;;10.50;;
46721;SDS011;32455;43.430;23.136;2023-06-24T09:31:49;13.27;;;9.73;;
46721;SDS011;32455;43.430;23.136;2023-06-24T09:34:37;13.43;;;10.50;;
46721;SDS011;32455;43.430;23.136;2023-06-24T09:37:23;11.95;;;10.68;;
46721;SDS011;32455;43.430;23.136;2023-06-24T09:40:15;12.82;;;10.73;;
46721;SDS011;32455;43.430;23.136;2023-06-24T09:43:01;13.65;;;11.23;;
46721;SDS011;32455;43.430;23.136;2023-06-24T09:45:46;13.88;;;9.80;;
46721;SDS011;32455;43.430;23.136;2023-06-24T09:48:34;14.65;;;10.50;;
46721;SDS011;32455;43.430;23.136;2023-06-24T09:51:19;11.57;;;9.98;;
46721;SDS011;32455;43.430;23.136;2023-06-24T09:54:06;11.82;;;9.95;;
46721;SDS011;32455;43.430;23.136;2023-06-24T09:56:52;11.23;;;10.05;;
46721;SDS011;32455;43.430;23.136;2023-06-24T09:59:39;11.18;;;9.77;;
46721;SDS011;32455;43.430;23.136;2023-06-24T10:02:26;11.18;;;10.07;;
46721;SDS011;32455;43.430;23.136;2023-06-24T10:05:15;12.13;;;10.07;;
46721;SDS011;32455;43.430;23.136;2023-06-24T10:08:02;10.73;;;9.70;;
46721;SDS011;32455;43.430;23.136;2023-06-24T10:10:50;13.70;;;9.10;;
46721;SDS011;32455;43.430;23.136;2023-06-24T10:13:35;16.50;;;10.07;;
46721;SDS011;32455;43.430;23.136;2023-06-24T10:16:21;11.88;;;9.45;;
46721;SDS011;32455;43.430;23.136;2023-06-24T10:19:07;16.63;;;9.65;;
46721;SDS011;32455;43.430;23.136;2023-06-24T10:21:54;11.50;;;9.90;;
46721;SDS011;32455;43.430;23.136;2023-06-24T10:24:41;14.88;;;10.70;;
46721;SDS011;32455;43.430;23.136;2023-06-24T10:27:30;10.82;;;9.77;;
46721;SDS011;32455;43.430;23.136;2023-06-24T10:30:24;10.52;;;9.50;;
46721;SDS011;32455;43.430;23.136;2023-06-24T10:33:13;11.27;;;9.43;;
46721;SDS011;32455;43.430;23.136;2023-06-24T10:36:00;13.68;;;9.60;;
46721;SDS011;32455;43.430;23.136;2023-06-24T10:38:54;10.90;;;9.35;;
46721;SDS011;32455;43.430;23.136;2023-06-24T10:41:41;12.30;;;9.75;;
46721;SDS011;32455;43.430;23.136;2023-06-24T10:44:26;11.63;;;10.07;;
46721;SDS011;32455;43.430;23.136;2023-06-24T10:47:12;11.05;;;9.68;;
46721;SDS011;32455;43.430;23.136;2023-06-24T10:49:57;11.23;;;9.98;;
46721;SDS011;32455;43.430;23.136;2023-06-24T10:52:44;11.18;;;9.30;;
46721;SDS011;32455;43.430;23.136;2023-06-24T10:55:30;12.88;;;9.70;;
46721;SDS011;32455;43.430;23.136;2023-06-24T10:58:16;12.02;;;10.75;;
46721;SDS011;32455;43.430;23.136;2023-06-24T11:01:08;13.25;;;10.73;;
46721;SDS011;32455;43.430;23.136;2023-06-24T11:03:54;14.35;;;10.18;;
46721;SDS011;32455;43.430;23.136;2023-06-24T11:06:39;14.13;;;10.65;;
46721;SDS011;32455;43.430;23.136;2023-06-24T11:09:25;11.65;;;10.25;;
46721;SDS011;32455;43.430;23.136;2023-06-24T11:12:11;10.85;;;9.70;;
46721;SDS011;32455;43.430;23.136;2023-06-24T11:14:56;11.80;;;10.70;;
46721;SDS011;32455;43.430;23.136;2023-06-24T11:17:43;13.00;;;10.52;;
46721;SDS011;32455;43.430;23.136;2023-06-24T11:20:28;23.90;;;12.95;;
46721;SDS011;32455;43.430;23.136;2023-06-24T11:23:14;16.35;;;12.07;;
46721;SDS011;32455;43.430;23.136;2023-06-24T11:25:59;13.70;;;11.38;;
46721;SDS011;32455;43.430;23.136;2023-06-24T11:28:48;12.85;;;11.50;;
46721;SDS011;32455;43.430;23.136;2023-06-24T11:31:34;14.35;;;11.88;;
46721;SDS011;32455;43.430;23.136;2023-06-24T11:34:20;14.68;;;12.07;;
46721;SDS011;32455;43.430;23.136;2023-06-24T11:37:10;15.52;;;11.75;;
46721;SDS011;32455;43.430;23.136;2023-06-24T11:40:04;14.07;;;12.60;;
46721;SDS011;32455;43.430;23.136;2023-06-24T11:42:50;13.73;;;12.23;;
46721;SDS011;32455;43.430;23.136;2023-06-24T11:45:36;13.55;;;11.95;;
46721;SDS011;32455;43.430;23.136;2023-06-24T11:48:21;14.05;;;12.18;;
46721;SDS011;32455;43.430;23.136;2023-06-24T11:51:13;16.20;;;12.43;;
46721;SDS011;32455;43.430;23.136;2023-06-24T11:56:49;13.43;;;11.77;;
46721;SDS011;32455;43.430;23.136;2023-06-24T11:59:38;14.93;;;12.75;;
46721;SDS011;32455;43.430;23.136;2023-06-24T12:02:23;14.82;;;13.10;;
46721;SDS011;32455;43.430;23.136;2023-06-24T12:05:08;14.35;;;13.00;;
46721;SDS011;32455;43.430;23.136;2023-06-24T12:07:57;14.75;;;13.25;;
46721;SDS011;32455;43.430;23.136;2023-06-24T12:10:45;15.55;;;12.80;;
46721;SDS011;32455;43.430;23.136;2023-06-24T12:13:30;14.05;;;12.55;;
46721;SDS011;32455;43.430;23.136;2023-06-24T12:16:15;14.68;;;12.63;;
46721;SDS011;32455;43.430;23.136;2023-06-24T12:19:00;13.98;;;12.65;;
46721;SDS011;32455;43.430;23.136;2023-06-24T12:21:46;15.13;;;12.52;;
46721;SDS011;32455;43.430;23.136;2023-06-24T12:24:31;15.35;;;12.52;;
46721;SDS011;32455;43.430;23.136;2023-06-24T12:27:17;16.77;;;13.70;;
46721;SDS011;32455;43.430;23.136;2023-06-24T12:30:02;14.50;;;13.00;;
46721;SDS011;32455;43.430;23.136;2023-06-24T12:32:50;13.45;;;12.15;;
46721;SDS011;32455;43.430;23.136;2023-06-24T12:35:37;14.15;;;12.65;;
46721;SDS011;32455;43.430;23.136;2023-06-24T12:38:22;14.93;;;13.40;;
46721;SDS011;32455;43.430;23.136;2023-06-24T12:41:07;15.32;;;13.82;;
46721;SDS011;32455;43.430;23.136;2023-06-24T12:43:52;15.90;;;12.98;;
46721;SDS011;32455;43.430;23.136;2023-06-24T12:46:37;13.57;;;12.27;;
46721;SDS011;32455;43.430;23.136;2023-06-24T12:49:22;15.20;;;13.60;;
46721;SDS011;32455;43.430;23.136;2023-06-24T12:52:08;16.83;;;13.18;;
46721;SDS011;32455;43.430;23.136;2023-06-24T12:54:53;16.35;;;12.95;;
46721;SDS011;32455;43.430;23.136;2023-06-24T12:57:38;24.60;;;12.27;;
46721;SDS011;32455;43.430;23.136;2023-06-24T13:00:23;15.80;;;12.70;;
46721;SDS011;32455;43.430;23.136;2023-06-24T13:03:09;14.93;;;12.90;;
46721;SDS011;32455;43.430;23.136;2023-06-24T13:05:54;16.17;;;13.18;;
46721;SDS011;32455;43.430;23.136;2023-06-24T13:08:40;13.30;;;11.88;;
46721;SDS011;32455;43.430;23.136;2023-06-24T13:11:25;17.05;;;12.70;;
46721;SDS011;32455;43.430;23.136;2023-06-24T13:14:12;13.52;;;12.13;;
46721;SDS011;32455;43.430;23.136;2023-06-24T13:16:57;14.18;;;12.57;;
46721;SDS011;32455;43.430;23.136;2023-06-24T13:19:43;13.90;;;12.35;;
46721;SDS011;32455;43.430;23.136;2023-06-24T13:22:28;14.50;;;12.98;;
46721;SDS011;32455;43.430;23.136;2023-06-24T13:25:13;17.58;;;12.70;;
46721;SDS011;32455;43.430;23.136;2023-06-24T13:27:59;15.60;;;11.68;;
46721;SDS011;32455;43.430;23.136;2023-06-24T13:30:45;13.70;;;12.32;;
46721;SDS011;32455;43.430;23.136;2023-06-24T13:33:30;13.63;;;11.93;;
46721;SDS011;32455;43.430;23.136;2023-06-24T13:36:29;15.30;;;13.23;;
46721;SDS011;32455;43.430;23.136;2023-06-24T13:39:17;13.65;;;11.93;;
46721;SDS011;32455;43.430;23.136;2023-06-24T13:42:03;15.18;;;13.57;;
46721;SDS011;32455;43.430;23.136;2023-06-24T13:44:48;14.35;;;12.85;;
46721;SDS011;32455;43.430;23.136;2023-06-24T13:47:33;16.05;;;12.70;;
46721;SDS011;32455;43.430;23.136;2023-06-24T13:50:19;16.42;;;12.85;;
46721;SDS011;32455;43.430;23.136;2023-06-24T13:53:04;20.15;;;13.05;;
46721;SDS011;32455;43.430;23.136;2023-06-24T13:55:50;17.73;;;12.65;;
46721;SDS011;32455;43.430;23.136;2023-06-24T13:58:35;15.43;;;12.32;;
46721;SDS011;32455;43.430;23.136;2023-06-24T14:01:21;13.88;;;12.35;;
46721;SDS011;32455;43.430;23.136;2023-06-24T14:04:06;17.05;;;12.45;;
46721;SDS011;32455;43.430;23.136;2023-06-24T14:06:51;14.25;;;11.30;;
46721;SDS011;32455;43.430;23.136;2023-06-24T14:09:37;15.63;;;9.70;;
46721;SDS011;32455;43.430;23.136;2023-06-24T14:12:24;11.75;;;8.90;;
46721;SDS011;32455;43.430;23.136;2023-06-24T14:15:09;15.75;;;10.10;;
46721;SDS011;32455;43.430;23.136;2023-06-24T14:17:55;13.30;;;8.50;;
46721;SDS011;32455;43.430;23.136;2023-06-24T14:20:41;14.85;;;8.60;;
46721;SDS011;32455;43.430;23.136;2023-06-24T14:23:27;13.45;;;9.05;;
46721;SDS011;32455;43.430;23.136;2023-06-24T14:26:13;15.60;;;9.35;;
46721;SDS011;32455;43.430;23.136;2023-06-24T14:28:58;10.38;;;8.60;;
46721;SDS011;32455;43.430;23.136;2023-06-24T14:31:44;11.10;;;9.95;;
46721;SDS011;32455;43.430;23.136;2023-06-24T14:34:29;13.75;;;9.68;;
46721;SDS011;32455;43.430;23.136;2023-06-24T14:37:15;18.25;;;11.00;;
46721;SDS011;32455;43.430;23.136;2023-06-24T14:40:00;17.40;;;10.23;;
46721;SDS011;32455;43.430;23.136;2023-06-24T14:42:46;16.15;;;10.93;;
46721;SDS011;32455;43.430;23.136;2023-06-24T14:45:31;14.60;;;10.70;;
46721;SDS011;32455;43.430;23.136;2023-06-24T14:48:17;12.13;;;10.70;;
46721;SDS011;32455;43.430;23.136;2023-06-24T14:51:03;16.23;;;11.45;;
46721;SDS011;32455;43.430;23.136;2023-06-24T14:53:48;13.38;;;11.70;;
46721;SDS011;32455;43.430;23.136;2023-06-24T14:56:33;14.25;;;11.57;;
46721;SDS011;32455;43.430;23.136;2023-06-24T14:59:19;15.27;;;11.70;;
46721;SDS011;32455;43.430;23.136;2023-06-24T15:02:04;16.00;;;11.20;;
46721;SDS011;32455;43.430;23.136;2023-06-24T15:04:50;13.05;;;11.32;;
46721;SDS011;32455;43.430;23.136;2023-06-24T15:07:35;13.63;;;10.95;;
46721;SDS011;32455;43.430;23.136;2023-06-24T15:10:22;15.90;;;11.98;;
46721;SDS011;32455;43.430;23.136;2023-06-24T15:13:08;14.27;;;12.30;;
46721;SDS011;32455;43.430;23.136;2023-06-24T15:15:54;12.60;;;10.93;;
46721;SDS011;32455;43.430;23.136;2023-06-24T15:18:46;14.65;;;11.60;;
46721;SDS011;32455;43.430;23.136;2023-06-24T15:21:33;15.27;;;11.05;;
46721;SDS011;32455;43.430;23.136;2023-06-24T15:24:18;13.55;;;11.48;;
46721;SDS011;32455;43.430;23.136;2023-06-24T15:27:04;15.57;;;11.75;;
46721;SDS011;32455;43.430;23.136;2023-06-24T15:29:49;17.17;;;12.32;;
46721;SDS011;32455;43.430;23.136;2023-06-24T15:32:34;15.07;;;11.77;;
46721;SDS011;32455;43.430;23.136;2023-06-24T15:35:20;18.92;;;12.60;;
46721;SDS011;32455;43.430;23.136;2023-06-24T15:38:05;15.55;;;11.35;;
46721;SDS011;32455;43.430;23.136;2023-06-24T15:40:51;16.23;;;12.52;;
46721;SDS011;32455;43.430;23.136;2023-06-24T15:43:36;14.00;;;12.27;;
46721;SDS011;32455;43.430;23.136;2023-06-24T15:46:21;14.00;;;12.52;;
46721;SDS011;32455;43.430;23.136;2023-06-24T15:49:07;13.80;;;12.40;;
46721;SDS011;32455;43.430;23.136;2023-06-24T15:51:52;15.18;;;12.50;;
46721;SDS011;32455;43.430;23.136;2023-06-24T15:54:36;22.00;;;11.77;;
46721;SDS011;32455;43.430;23.136;2023-06-24T15:57:22;16.92;;;13.75;;
46721;SDS011;32455;43.430;23.136;2023-06-24T16:00:07;16.48;;;12.68;;
46721;SDS011;32455;43.430;23.136;2023-06-24T16:02:53;16.08;;;13.63;;
46721;SDS011;32455;43.430;23.136;2023-06-24T16:05:38;14.63;;;12.77;;
46721;SDS011;32455;43.430;23.136;2023-06-24T16:08:24;17.40;;;12.95;;
46721;SDS011;32455;43.430;23.136;2023-06-24T16:11:10;18.88;;;14.00;;